<?xml version="1.0" encoding="UTF-8" standalone="no" ?>
<gpx xmlns="http://www.topografix.com/GPX/1/1" xmlns:xsi="http://www.w3.org/2001/XMLSchema-instance" xsi:schemaLocation="http://www.topografix.com/GPX/1/1 http://www.topografix.com/GPX/1/1/gpx.xsd" version="1.1" creator="VisuGPX - https://www.visugpx.com">
  <metadata>
    <name>suce_BoucleNordOuestBis_21km</name>
    <desc><![CDATA[gnerando idor: 5548821_9731105_9730670]]></desc>
  </metadata>
  <wpt lat="47.34259" lon="-1.53106">
    <ele>21.3</ele>
    <name><![CDATA[0001488]]></name>
    <type><![CDATA[Point de départ]]></type>
  </wpt>
  <wpt lat="47.34254" lon="-1.53112">
    <ele>21.1</ele>
    <name><![CDATA[0001489]]></name>
    <desc><![CDATA[<p><br /><h3>Nom: Segment: 1</h3><br />Heure de départ: 12/03/2023 14:02<br/>Heure d'arrivée: 12/03/2023 16:09<br/>Distance: 11,1km (02:07)<br/>Temps déplacement: 02:04<br/>Vitesse moyenne: 5,24 km/h<br/>Vitesse moyenne mouv.: 5,36 km/h<br/>Vitesse Max.: 8,1 km/h<br/>Altitude minimale: 3 m<br/>Altitude maximale: 38 m<br/>Vitesse de montée: 127 m/h<br/>Vitesse de descente: -156,2 m/h<br/>Gain d'altitude: 121 m<br/>Perte d'altitude: -121 m<br/>Temps de montée: 00:57<br/>Temps de descente: 00:46<br/></p>]]></desc>
    <type><![CDATA[Point d'arrivée]]></type>
  </wpt>
  <trk>
    <name><![CDATA[Casson_CheminsCreuxVariante_13.7km-10502565]]></name>
    <extensions>
      <line xmlns="http://www.topografix.com/GPX/gpx_style/0/2">
        <color>00FF00</color>
        <width>4</width>
      </line>
    </extensions>
    <trkseg>
      <trkpt lat="47.40209" lon="-1.53676">
        <ele>10</ele>
        <time>2023-10-31T20:22:00Z</time>
      </trkpt>
      <trkpt lat="47.40208" lon="-1.53677">
        <ele>10</ele>
        <time>2023-10-31T20:22:02Z</time>
      </trkpt>
      <trkpt lat="47.4021" lon="-1.53676">
        <ele>10</ele>
        <time>2023-10-31T20:22:04Z</time>
      </trkpt>
      <trkpt lat="47.4021" lon="-1.53679">
        <ele>10</ele>
        <time>2023-10-31T20:22:07Z</time>
      </trkpt>
      <trkpt lat="47.40208" lon="-1.53667">
        <ele>10</ele>
        <time>2023-10-31T20:22:18Z</time>
      </trkpt>
      <trkpt lat="47.40212" lon="-1.53691">
        <ele>10</ele>
        <time>2023-10-31T20:22:41Z</time>
      </trkpt>
      <trkpt lat="47.40213" lon="-1.53731">
        <ele>11</ele>
        <time>2023-10-31T20:23:17Z</time>
      </trkpt>
      <trkpt lat="47.40224" lon="-1.53771">
        <ele>11</ele>
        <time>2023-10-31T20:23:56Z</time>
      </trkpt>
      <trkpt lat="47.40228" lon="-1.53798">
        <ele>11</ele>
        <time>2023-10-31T20:24:21Z</time>
      </trkpt>
      <trkpt lat="47.40225" lon="-1.53804">
        <ele>11</ele>
        <time>2023-10-31T20:24:27Z</time>
      </trkpt>
      <trkpt lat="47.40217" lon="-1.53712">
        <ele>10</ele>
        <time>2023-10-31T20:25:51Z</time>
      </trkpt>
      <trkpt lat="47.40207" lon="-1.53672">
        <ele>10</ele>
        <time>2023-10-31T20:26:30Z</time>
      </trkpt>
      <trkpt lat="47.40207" lon="-1.53653">
        <ele>10</ele>
        <time>2023-10-31T20:26:47Z</time>
      </trkpt>
      <trkpt lat="47.40215" lon="-1.53636">
        <ele>9</ele>
        <time>2023-10-31T20:27:06Z</time>
      </trkpt>
      <trkpt lat="47.40219" lon="-1.53635">
        <ele>9</ele>
        <time>2023-10-31T20:27:11Z</time>
      </trkpt>
      <trkpt lat="47.40225" lon="-1.53642">
        <ele>9</ele>
        <time>2023-10-31T20:27:21Z</time>
      </trkpt>
      <trkpt lat="47.4023" lon="-1.53681">
        <ele>9</ele>
        <time>2023-10-31T20:27:57Z</time>
      </trkpt>
      <trkpt lat="47.40242" lon="-1.53722">
        <ele>10</ele>
        <time>2023-10-31T20:28:37Z</time>
      </trkpt>
      <trkpt lat="47.40251" lon="-1.53747">
        <ele>10</ele>
        <time>2023-10-31T20:29:03Z</time>
      </trkpt>
      <trkpt lat="47.40254" lon="-1.5375">
        <ele>10</ele>
        <time>2023-10-31T20:29:08Z</time>
      </trkpt>
      <trkpt lat="47.40267" lon="-1.53793">
        <ele>10</ele>
        <time>2023-10-31T20:29:50Z</time>
      </trkpt>
      <trkpt lat="47.40275" lon="-1.53802">
        <ele>10</ele>
        <time>2023-10-31T20:30:04Z</time>
      </trkpt>
      <trkpt lat="47.40277" lon="-1.53827">
        <ele>10</ele>
        <time>2023-10-31T20:30:27Z</time>
      </trkpt>
      <trkpt lat="47.4027" lon="-1.53831">
        <ele>10</ele>
        <time>2023-10-31T20:30:37Z</time>
      </trkpt>
      <trkpt lat="47.40268" lon="-1.53842">
        <ele>10</ele>
        <time>2023-10-31T20:30:47Z</time>
      </trkpt>
      <trkpt lat="47.40281" lon="-1.53833">
        <ele>10</ele>
        <time>2023-10-31T20:31:06Z</time>
      </trkpt>
      <trkpt lat="47.40293" lon="-1.53831">
        <ele>11</ele>
        <time>2023-10-31T20:31:22Z</time>
      </trkpt>
      <trkpt lat="47.40315" lon="-1.53835">
        <ele>11</ele>
        <time>2023-10-31T20:31:52Z</time>
      </trkpt>
      <trkpt lat="47.40318" lon="-1.53837">
        <ele>11</ele>
        <time>2023-10-31T20:31:56Z</time>
      </trkpt>
      <trkpt lat="47.40352" lon="-1.53841">
        <ele>11</ele>
        <time>2023-10-31T20:32:42Z</time>
      </trkpt>
      <trkpt lat="47.40357" lon="-1.53859">
        <ele>11</ele>
        <time>2023-10-31T20:32:59Z</time>
      </trkpt>
      <trkpt lat="47.40354" lon="-1.54013">
        <ele>15</ele>
        <time>2023-10-31T20:35:18Z</time>
      </trkpt>
      <trkpt lat="47.40361" lon="-1.54037">
        <ele>15</ele>
        <time>2023-10-31T20:35:42Z</time>
      </trkpt>
      <trkpt lat="47.40373" lon="-1.54056">
        <ele>16</ele>
        <time>2023-10-31T20:36:05Z</time>
      </trkpt>
      <trkpt lat="47.40387" lon="-1.54071">
        <ele>17</ele>
        <time>2023-10-31T20:36:28Z</time>
      </trkpt>
      <trkpt lat="47.40392" lon="-1.54102">
        <ele>18</ele>
        <time>2023-10-31T20:36:57Z</time>
      </trkpt>
      <trkpt lat="47.40366" lon="-1.54362">
        <ele>18</ele>
        <time>2023-10-31T20:40:55Z</time>
      </trkpt>
      <trkpt lat="47.40365" lon="-1.54403">
        <ele>16</ele>
        <time>2023-10-31T20:41:32Z</time>
      </trkpt>
      <trkpt lat="47.40379" lon="-1.54435">
        <ele>16</ele>
        <time>2023-10-31T20:42:06Z</time>
      </trkpt>
      <trkpt lat="47.40403" lon="-1.54471">
        <ele>15</ele>
        <time>2023-10-31T20:42:52Z</time>
      </trkpt>
      <trkpt lat="47.40467" lon="-1.54561">
        <ele>15</ele>
        <time>2023-10-31T20:44:50Z</time>
      </trkpt>
      <trkpt lat="47.405" lon="-1.54609">
        <ele>16</ele>
        <time>2023-10-31T20:45:51Z</time>
      </trkpt>
      <trkpt lat="47.40519" lon="-1.54633">
        <ele>16</ele>
        <time>2023-10-31T20:46:25Z</time>
      </trkpt>
      <trkpt lat="47.40531" lon="-1.54657">
        <ele>15</ele>
        <time>2023-10-31T20:46:52Z</time>
      </trkpt>
      <trkpt lat="47.40538" lon="-1.54685">
        <ele>15</ele>
        <time>2023-10-31T20:47:19Z</time>
      </trkpt>
      <trkpt lat="47.40544" lon="-1.54718">
        <ele>15</ele>
        <time>2023-10-31T20:47:50Z</time>
      </trkpt>
      <trkpt lat="47.40559" lon="-1.5476">
        <ele>14</ele>
        <time>2023-10-31T20:48:32Z</time>
      </trkpt>
      <trkpt lat="47.40583" lon="-1.54821">
        <ele>15</ele>
        <time>2023-10-31T20:49:36Z</time>
      </trkpt>
      <trkpt lat="47.4059" lon="-1.5488">
        <ele>15</ele>
        <time>2023-10-31T20:50:30Z</time>
      </trkpt>
      <trkpt lat="47.40605" lon="-1.5494">
        <ele>16</ele>
        <time>2023-10-31T20:51:28Z</time>
      </trkpt>
      <trkpt lat="47.40624" lon="-1.55037">
        <ele>16</ele>
        <time>2023-10-31T20:52:59Z</time>
      </trkpt>
      <trkpt lat="47.40636" lon="-1.55124">
        <ele>17</ele>
        <time>2023-10-31T20:54:19Z</time>
      </trkpt>
      <trkpt lat="47.40636" lon="-1.55148">
        <ele>18</ele>
        <time>2023-10-31T20:54:41Z</time>
      </trkpt>
      <trkpt lat="47.40645" lon="-1.55202">
        <ele>19</ele>
        <time>2023-10-31T20:55:31Z</time>
      </trkpt>
      <trkpt lat="47.40653" lon="-1.55263">
        <ele>21</ele>
        <time>2023-10-31T20:56:27Z</time>
      </trkpt>
      <trkpt lat="47.40673" lon="-1.55351">
        <ele>23</ele>
        <time>2023-10-31T20:57:51Z</time>
      </trkpt>
      <trkpt lat="47.40685" lon="-1.55399">
        <ele>24</ele>
        <time>2023-10-31T20:58:38Z</time>
      </trkpt>
      <trkpt lat="47.40703" lon="-1.55459">
        <ele>25</ele>
        <time>2023-10-31T20:59:37Z</time>
      </trkpt>
      <trkpt lat="47.40709" lon="-1.555">
        <ele>24</ele>
        <time>2023-10-31T21:00:15Z</time>
      </trkpt>
      <trkpt lat="47.40737" lon="-1.55558">
        <ele>23</ele>
        <time>2023-10-31T21:01:19Z</time>
      </trkpt>
      <trkpt lat="47.40753" lon="-1.55586">
        <ele>23</ele>
        <time>2023-10-31T21:01:52Z</time>
      </trkpt>
      <trkpt lat="47.40772" lon="-1.55597">
        <ele>24</ele>
        <time>2023-10-31T21:02:19Z</time>
      </trkpt>
      <trkpt lat="47.4078" lon="-1.55608">
        <ele>24</ele>
        <time>2023-10-31T21:02:34Z</time>
      </trkpt>
      <trkpt lat="47.40795" lon="-1.55665">
        <ele>23</ele>
        <time>2023-10-31T21:03:29Z</time>
      </trkpt>
      <trkpt lat="47.40799" lon="-1.55719">
        <ele>22</ele>
        <time>2023-10-31T21:04:18Z</time>
      </trkpt>
      <trkpt lat="47.40811" lon="-1.55823">
        <ele>23</ele>
        <time>2023-10-31T21:05:54Z</time>
      </trkpt>
      <trkpt lat="47.40823" lon="-1.55871">
        <ele>25</ele>
        <time>2023-10-31T21:06:40Z</time>
      </trkpt>
      <trkpt lat="47.40825" lon="-1.55899">
        <ele>26</ele>
        <time>2023-10-31T21:07:05Z</time>
      </trkpt>
      <trkpt lat="47.40839" lon="-1.55956">
        <ele>27</ele>
        <time>2023-10-31T21:08:00Z</time>
      </trkpt>
      <trkpt lat="47.40854" lon="-1.56013">
        <ele>26</ele>
        <time>2023-10-31T21:08:55Z</time>
      </trkpt>
      <trkpt lat="47.40876" lon="-1.56073">
        <ele>24</ele>
        <time>2023-10-31T21:09:57Z</time>
      </trkpt>
      <trkpt lat="47.40892" lon="-1.56104">
        <ele>24</ele>
        <time>2023-10-31T21:10:32Z</time>
      </trkpt>
      <trkpt lat="47.40903" lon="-1.56126">
        <ele>23</ele>
        <time>2023-10-31T21:10:57Z</time>
      </trkpt>
      <trkpt lat="47.40903" lon="-1.56134">
        <ele>23</ele>
        <time>2023-10-31T21:11:04Z</time>
      </trkpt>
      <trkpt lat="47.40916" lon="-1.56154">
        <ele>22</ele>
        <time>2023-10-31T21:11:29Z</time>
      </trkpt>
      <trkpt lat="47.4092" lon="-1.56185">
        <ele>21</ele>
        <time>2023-10-31T21:11:57Z</time>
      </trkpt>
      <trkpt lat="47.40928" lon="-1.56253">
        <ele>19</ele>
        <time>2023-10-31T21:13:00Z</time>
      </trkpt>
      <trkpt lat="47.40941" lon="-1.5629">
        <ele>19</ele>
        <time>2023-10-31T21:13:37Z</time>
      </trkpt>
      <trkpt lat="47.4096" lon="-1.56317">
        <ele>20</ele>
        <time>2023-10-31T21:14:13Z</time>
      </trkpt>
      <trkpt lat="47.40979" lon="-1.56338">
        <ele>21</ele>
        <time>2023-10-31T21:14:44Z</time>
      </trkpt>
      <trkpt lat="47.40988" lon="-1.56337">
        <ele>21</ele>
        <time>2023-10-31T21:14:56Z</time>
      </trkpt>
      <trkpt lat="47.41" lon="-1.56343">
        <ele>22</ele>
        <time>2023-10-31T21:15:13Z</time>
      </trkpt>
      <trkpt lat="47.41036" lon="-1.56346">
        <ele>22</ele>
        <time>2023-10-31T21:16:01Z</time>
      </trkpt>
      <trkpt lat="47.41059" lon="-1.56352">
        <ele>22</ele>
        <time>2023-10-31T21:16:33Z</time>
      </trkpt>
      <trkpt lat="47.41067" lon="-1.56347">
        <ele>22</ele>
        <time>2023-10-31T21:16:44Z</time>
      </trkpt>
      <trkpt lat="47.41086" lon="-1.56381">
        <ele>22</ele>
        <time>2023-10-31T21:17:24Z</time>
      </trkpt>
      <trkpt lat="47.4111" lon="-1.5641">
        <ele>23</ele>
        <time>2023-10-31T21:18:05Z</time>
      </trkpt>
      <trkpt lat="47.41115" lon="-1.56399">
        <ele>24</ele>
        <time>2023-10-31T21:18:17Z</time>
      </trkpt>
      <trkpt lat="47.4113" lon="-1.56381">
        <ele>24</ele>
        <time>2023-10-31T21:18:43Z</time>
      </trkpt>
      <trkpt lat="47.4113" lon="-1.56402">
        <ele>24</ele>
        <time>2023-10-31T21:19:02Z</time>
      </trkpt>
      <trkpt lat="47.41134" lon="-1.56404">
        <ele>25</ele>
        <time>2023-10-31T21:19:08Z</time>
      </trkpt>
      <trkpt lat="47.41149" lon="-1.56428">
        <ele>25</ele>
        <time>2023-10-31T21:19:37Z</time>
      </trkpt>
      <trkpt lat="47.41169" lon="-1.56504">
        <ele>27</ele>
        <time>2023-10-31T21:20:51Z</time>
      </trkpt>
      <trkpt lat="47.41167" lon="-1.56516">
        <ele>27</ele>
        <time>2023-10-31T21:21:02Z</time>
      </trkpt>
      <trkpt lat="47.41177" lon="-1.56595">
        <ele>29</ele>
        <time>2023-10-31T21:22:15Z</time>
      </trkpt>
      <trkpt lat="47.41183" lon="-1.56615">
        <ele>29</ele>
        <time>2023-10-31T21:22:34Z</time>
      </trkpt>
      <trkpt lat="47.41182" lon="-1.56623">
        <ele>29</ele>
        <time>2023-10-31T21:22:42Z</time>
      </trkpt>
      <trkpt lat="47.41185" lon="-1.56644">
        <ele>29</ele>
        <time>2023-10-31T21:23:01Z</time>
      </trkpt>
      <trkpt lat="47.41185" lon="-1.5667">
        <ele>29</ele>
        <time>2023-10-31T21:23:25Z</time>
      </trkpt>
      <trkpt lat="47.41196" lon="-1.56708">
        <ele>29</ele>
        <time>2023-10-31T21:24:02Z</time>
      </trkpt>
      <trkpt lat="47.4121" lon="-1.56732">
        <ele>29</ele>
        <time>2023-10-31T21:24:30Z</time>
      </trkpt>
      <trkpt lat="47.4122" lon="-1.56761">
        <ele>29</ele>
        <time>2023-10-31T21:25:00Z</time>
      </trkpt>
      <trkpt lat="47.41241" lon="-1.56829">
        <ele>29</ele>
        <time>2023-10-31T21:26:07Z</time>
      </trkpt>
      <trkpt lat="47.41243" lon="-1.56884">
        <ele>26</ele>
        <time>2023-10-31T21:26:57Z</time>
      </trkpt>
      <trkpt lat="47.41251" lon="-1.5693">
        <ele>25</ele>
        <time>2023-10-31T21:27:40Z</time>
      </trkpt>
      <trkpt lat="47.41253" lon="-1.56953">
        <ele>24</ele>
        <time>2023-10-31T21:28:01Z</time>
      </trkpt>
      <trkpt lat="47.41266" lon="-1.5701">
        <ele>23</ele>
        <time>2023-10-31T21:28:55Z</time>
      </trkpt>
      <trkpt lat="47.4126" lon="-1.57029">
        <ele>23</ele>
        <time>2023-10-31T21:29:14Z</time>
      </trkpt>
      <trkpt lat="47.41237" lon="-1.57048">
        <ele>23</ele>
        <time>2023-10-31T21:29:49Z</time>
      </trkpt>
      <trkpt lat="47.41209" lon="-1.57075">
        <ele>23</ele>
        <time>2023-10-31T21:30:34Z</time>
      </trkpt>
      <trkpt lat="47.41196" lon="-1.57096">
        <ele>23</ele>
        <time>2023-10-31T21:31:00Z</time>
      </trkpt>
      <trkpt lat="47.41164" lon="-1.5714">
        <ele>23</ele>
        <time>2023-10-31T21:31:58Z</time>
      </trkpt>
      <trkpt lat="47.41148" lon="-1.57159">
        <ele>24</ele>
        <time>2023-10-31T21:32:25Z</time>
      </trkpt>
      <trkpt lat="47.41124" lon="-1.5718">
        <ele>25</ele>
        <time>2023-10-31T21:33:03Z</time>
      </trkpt>
      <trkpt lat="47.41085" lon="-1.57185">
        <ele>27</ele>
        <time>2023-10-31T21:33:55Z</time>
      </trkpt>
      <trkpt lat="47.41044" lon="-1.57198">
        <ele>27</ele>
        <time>2023-10-31T21:34:51Z</time>
      </trkpt>
      <trkpt lat="47.41026" lon="-1.57209">
        <ele>28</ele>
        <time>2023-10-31T21:35:17Z</time>
      </trkpt>
      <trkpt lat="47.40992" lon="-1.57219">
        <ele>27</ele>
        <time>2023-10-31T21:36:03Z</time>
      </trkpt>
      <trkpt lat="47.40972" lon="-1.57234">
        <ele>27</ele>
        <time>2023-10-31T21:36:33Z</time>
      </trkpt>
      <trkpt lat="47.40937" lon="-1.57243">
        <ele>27</ele>
        <time>2023-10-31T21:37:20Z</time>
      </trkpt>
      <trkpt lat="47.40931" lon="-1.57242">
        <ele>27</ele>
        <time>2023-10-31T21:37:28Z</time>
      </trkpt>
      <trkpt lat="47.40922" lon="-1.57244">
        <ele>27</ele>
        <time>2023-10-31T21:37:41Z</time>
      </trkpt>
      <trkpt lat="47.4092" lon="-1.57244">
        <ele>27</ele>
        <time>2023-10-31T21:37:43Z</time>
      </trkpt>
      <trkpt lat="47.40882" lon="-1.5726">
        <ele>27</ele>
        <time>2023-10-31T21:38:36Z</time>
      </trkpt>
      <trkpt lat="47.40811" lon="-1.57283">
        <ele>28</ele>
        <time>2023-10-31T21:40:13Z</time>
      </trkpt>
      <trkpt lat="47.40705" lon="-1.57306">
        <ele>29</ele>
        <time>2023-10-31T21:42:36Z</time>
      </trkpt>
      <trkpt lat="47.4065" lon="-1.57315">
        <ele>29</ele>
        <time>2023-10-31T21:43:50Z</time>
      </trkpt>
      <trkpt lat="47.40647" lon="-1.57319">
        <ele>29</ele>
        <time>2023-10-31T21:43:55Z</time>
      </trkpt>
      <trkpt lat="47.40641" lon="-1.5735">
        <ele>30</ele>
        <time>2023-10-31T21:44:24Z</time>
      </trkpt>
      <trkpt lat="47.40627" lon="-1.57391">
        <ele>31</ele>
        <time>2023-10-31T21:45:06Z</time>
      </trkpt>
      <trkpt lat="47.4062" lon="-1.57404">
        <ele>31</ele>
        <time>2023-10-31T21:45:21Z</time>
      </trkpt>
      <trkpt lat="47.40594" lon="-1.57467">
        <ele>31</ele>
        <time>2023-10-31T21:46:27Z</time>
      </trkpt>
      <trkpt lat="47.40593" lon="-1.57473">
        <ele>32</ele>
        <time>2023-10-31T21:46:33Z</time>
      </trkpt>
      <trkpt lat="47.40578" lon="-1.57496">
        <ele>32</ele>
        <time>2023-10-31T21:47:02Z</time>
      </trkpt>
      <trkpt lat="47.4057" lon="-1.57516">
        <ele>32</ele>
        <time>2023-10-31T21:47:23Z</time>
      </trkpt>
      <trkpt lat="47.40537" lon="-1.57567">
        <ele>31</ele>
        <time>2023-10-31T21:48:27Z</time>
      </trkpt>
      <trkpt lat="47.40514" lon="-1.57622">
        <ele>32</ele>
        <time>2023-10-31T21:49:25Z</time>
      </trkpt>
      <trkpt lat="47.40498" lon="-1.57651">
        <ele>32</ele>
        <time>2023-10-31T21:49:59Z</time>
      </trkpt>
      <trkpt lat="47.40482" lon="-1.57659">
        <ele>32</ele>
        <time>2023-10-31T21:50:21Z</time>
      </trkpt>
      <trkpt lat="47.40446" lon="-1.57652">
        <ele>33</ele>
        <time>2023-10-31T21:51:10Z</time>
      </trkpt>
      <trkpt lat="47.40408" lon="-1.57632">
        <ele>33</ele>
        <time>2023-10-31T21:52:04Z</time>
      </trkpt>
      <trkpt lat="47.4034" lon="-1.57609">
        <ele>33</ele>
        <time>2023-10-31T21:53:37Z</time>
      </trkpt>
      <trkpt lat="47.40337" lon="-1.57605">
        <ele>33</ele>
        <time>2023-10-31T21:53:42Z</time>
      </trkpt>
      <trkpt lat="47.40319" lon="-1.57597">
        <ele>33</ele>
        <time>2023-10-31T21:54:07Z</time>
      </trkpt>
      <trkpt lat="47.40316" lon="-1.57598">
        <ele>33</ele>
        <time>2023-10-31T21:54:11Z</time>
      </trkpt>
      <trkpt lat="47.40308" lon="-1.57597">
        <ele>33</ele>
        <time>2023-10-31T21:54:22Z</time>
      </trkpt>
      <trkpt lat="47.40303" lon="-1.57591">
        <ele>33</ele>
        <time>2023-10-31T21:54:31Z</time>
      </trkpt>
      <trkpt lat="47.40284" lon="-1.57586">
        <ele>34</ele>
        <time>2023-10-31T21:54:56Z</time>
      </trkpt>
      <trkpt lat="47.40267" lon="-1.57576">
        <ele>34</ele>
        <time>2023-10-31T21:55:21Z</time>
      </trkpt>
      <trkpt lat="47.40237" lon="-1.57568">
        <ele>34</ele>
        <time>2023-10-31T21:56:01Z</time>
      </trkpt>
      <trkpt lat="47.40192" lon="-1.57548">
        <ele>34</ele>
        <time>2023-10-31T21:57:04Z</time>
      </trkpt>
      <trkpt lat="47.40161" lon="-1.57542">
        <ele>34</ele>
        <time>2023-10-31T21:57:46Z</time>
      </trkpt>
      <trkpt lat="47.40143" lon="-1.5754">
        <ele>35</ele>
        <time>2023-10-31T21:58:10Z</time>
      </trkpt>
      <trkpt lat="47.40121" lon="-1.57543">
        <ele>35</ele>
        <time>2023-10-31T21:58:39Z</time>
      </trkpt>
      <trkpt lat="47.40091" lon="-1.5754">
        <ele>36</ele>
        <time>2023-10-31T21:59:20Z</time>
      </trkpt>
      <trkpt lat="47.40083" lon="-1.57536">
        <ele>37</ele>
        <time>2023-10-31T21:59:31Z</time>
      </trkpt>
      <trkpt lat="47.40072" lon="-1.57537">
        <ele>36</ele>
        <time>2023-10-31T21:59:46Z</time>
      </trkpt>
      <trkpt lat="47.40036" lon="-1.5753">
        <ele>35</ele>
        <time>2023-10-31T22:00:34Z</time>
      </trkpt>
      <trkpt lat="47.4002" lon="-1.57532">
        <ele>35</ele>
        <time>2023-10-31T22:00:55Z</time>
      </trkpt>
      <trkpt lat="47.39995" lon="-1.57548">
        <ele>34</ele>
        <time>2023-10-31T22:01:32Z</time>
      </trkpt>
      <trkpt lat="47.39963" lon="-1.57551">
        <ele>32</ele>
        <time>2023-10-31T22:02:15Z</time>
      </trkpt>
      <trkpt lat="47.39931" lon="-1.57565">
        <ele>31</ele>
        <time>2023-10-31T22:02:59Z</time>
      </trkpt>
      <trkpt lat="47.39911" lon="-1.5758">
        <ele>30</ele>
        <time>2023-10-31T22:03:29Z</time>
      </trkpt>
      <trkpt lat="47.39892" lon="-1.57583">
        <ele>29</ele>
        <time>2023-10-31T22:03:55Z</time>
      </trkpt>
      <trkpt lat="47.39862" lon="-1.57591">
        <ele>27</ele>
        <time>2023-10-31T22:04:35Z</time>
      </trkpt>
      <trkpt lat="47.39851" lon="-1.57597">
        <ele>26</ele>
        <time>2023-10-31T22:04:51Z</time>
      </trkpt>
      <trkpt lat="47.39834" lon="-1.57601">
        <ele>25</ele>
        <time>2023-10-31T22:05:14Z</time>
      </trkpt>
      <trkpt lat="47.39799" lon="-1.57594">
        <ele>24</ele>
        <time>2023-10-31T22:06:01Z</time>
      </trkpt>
      <trkpt lat="47.39794" lon="-1.57587">
        <ele>24</ele>
        <time>2023-10-31T22:06:10Z</time>
      </trkpt>
      <trkpt lat="47.39771" lon="-1.57579">
        <ele>23</ele>
        <time>2023-10-31T22:06:42Z</time>
      </trkpt>
      <trkpt lat="47.3975" lon="-1.57579">
        <ele>22</ele>
        <time>2023-10-31T22:07:10Z</time>
      </trkpt>
      <trkpt lat="47.3973" lon="-1.57584">
        <ele>22</ele>
        <time>2023-10-31T22:07:37Z</time>
      </trkpt>
      <trkpt lat="47.39695" lon="-1.576">
        <ele>21</ele>
        <time>2023-10-31T22:08:26Z</time>
      </trkpt>
      <trkpt lat="47.39675" lon="-1.57605">
        <ele>20</ele>
        <time>2023-10-31T22:08:53Z</time>
      </trkpt>
      <trkpt lat="47.39639" lon="-1.5762">
        <ele>20</ele>
        <time>2023-10-31T22:09:43Z</time>
      </trkpt>
      <trkpt lat="47.39619" lon="-1.57627">
        <ele>20</ele>
        <time>2023-10-31T22:10:10Z</time>
      </trkpt>
      <trkpt lat="47.39602" lon="-1.57629">
        <ele>20</ele>
        <time>2023-10-31T22:10:33Z</time>
      </trkpt>
      <trkpt lat="47.39581" lon="-1.57626">
        <ele>21</ele>
        <time>2023-10-31T22:11:01Z</time>
      </trkpt>
      <trkpt lat="47.39537" lon="-1.57629">
        <ele>20</ele>
        <time>2023-10-31T22:12:00Z</time>
      </trkpt>
      <trkpt lat="47.3948" lon="-1.57628">
        <ele>20</ele>
        <time>2023-10-31T22:13:16Z</time>
      </trkpt>
      <trkpt lat="47.39443" lon="-1.57635">
        <ele>21</ele>
        <time>2023-10-31T22:14:06Z</time>
      </trkpt>
      <trkpt lat="47.39406" lon="-1.57635">
        <ele>21</ele>
        <time>2023-10-31T22:14:55Z</time>
      </trkpt>
      <trkpt lat="47.39396" lon="-1.57637">
        <ele>21</ele>
        <time>2023-10-31T22:15:08Z</time>
      </trkpt>
      <trkpt lat="47.39374" lon="-1.57632">
        <ele>22</ele>
        <time>2023-10-31T22:15:38Z</time>
      </trkpt>
      <trkpt lat="47.39362" lon="-1.57634">
        <ele>22</ele>
        <time>2023-10-31T22:15:54Z</time>
      </trkpt>
      <trkpt lat="47.39324" lon="-1.57634">
        <ele>23</ele>
        <time>2023-10-31T22:16:45Z</time>
      </trkpt>
      <trkpt lat="47.39299" lon="-1.57638">
        <ele>24</ele>
        <time>2023-10-31T22:17:19Z</time>
      </trkpt>
      <trkpt lat="47.39276" lon="-1.5764">
        <ele>25</ele>
        <time>2023-10-31T22:17:49Z</time>
      </trkpt>
      <trkpt lat="47.39269" lon="-1.57645">
        <ele>26</ele>
        <time>2023-10-31T22:18:00Z</time>
      </trkpt>
      <trkpt lat="47.39263" lon="-1.57643">
        <ele>26</ele>
        <time>2023-10-31T22:18:08Z</time>
      </trkpt>
      <trkpt lat="47.39262" lon="-1.5764">
        <ele>26</ele>
        <time>2023-10-31T22:18:11Z</time>
      </trkpt>
      <trkpt lat="47.39263" lon="-1.57645">
        <ele>26</ele>
        <time>2023-10-31T22:18:16Z</time>
      </trkpt>
      <trkpt lat="47.39257" lon="-1.57632">
        <ele>26</ele>
        <time>2023-10-31T22:18:30Z</time>
      </trkpt>
      <trkpt lat="47.39245" lon="-1.57618">
        <ele>25</ele>
        <time>2023-10-31T22:18:50Z</time>
      </trkpt>
      <trkpt lat="47.39216" lon="-1.576">
        <ele>26</ele>
        <time>2023-10-31T22:19:32Z</time>
      </trkpt>
      <trkpt lat="47.39171" lon="-1.57587">
        <ele>27</ele>
        <time>2023-10-31T22:20:33Z</time>
      </trkpt>
      <trkpt lat="47.39159" lon="-1.57582">
        <ele>27</ele>
        <time>2023-10-31T22:20:50Z</time>
      </trkpt>
      <trkpt lat="47.39126" lon="-1.57575">
        <ele>28</ele>
        <time>2023-10-31T22:21:35Z</time>
      </trkpt>
      <trkpt lat="47.3909" lon="-1.5758">
        <ele>29</ele>
        <time>2023-10-31T22:22:23Z</time>
      </trkpt>
      <trkpt lat="47.3907" lon="-1.57587">
        <ele>29</ele>
        <time>2023-10-31T22:22:50Z</time>
      </trkpt>
      <trkpt lat="47.39024" lon="-1.57598">
        <ele>30</ele>
        <time>2023-10-31T22:23:52Z</time>
      </trkpt>
      <trkpt lat="47.38975" lon="-1.57602">
        <ele>30</ele>
        <time>2023-10-31T22:24:58Z</time>
      </trkpt>
      <trkpt lat="47.38926" lon="-1.57613">
        <ele>31</ele>
        <time>2023-10-31T22:26:04Z</time>
      </trkpt>
      <trkpt lat="47.38915" lon="-1.57613">
        <ele>31</ele>
        <time>2023-10-31T22:26:19Z</time>
      </trkpt>
      <trkpt lat="47.389" lon="-1.57619">
        <ele>31</ele>
        <time>2023-10-31T22:26:39Z</time>
      </trkpt>
      <trkpt lat="47.38861" lon="-1.57619">
        <ele>31</ele>
        <time>2023-10-31T22:27:31Z</time>
      </trkpt>
      <trkpt lat="47.38843" lon="-1.57607">
        <ele>31</ele>
        <time>2023-10-31T22:27:58Z</time>
      </trkpt>
      <trkpt lat="47.38839" lon="-1.5761">
        <ele>31</ele>
        <time>2023-10-31T22:28:04Z</time>
      </trkpt>
      <trkpt lat="47.38848" lon="-1.5766">
        <ele>31</ele>
        <time>2023-10-31T22:28:51Z</time>
      </trkpt>
      <trkpt lat="47.38847" lon="-1.57674">
        <ele>31</ele>
        <time>2023-10-31T22:29:03Z</time>
      </trkpt>
      <trkpt lat="47.38851" lon="-1.57694">
        <ele>32</ele>
        <time>2023-10-31T22:29:22Z</time>
      </trkpt>
      <trkpt lat="47.38842" lon="-1.57706">
        <ele>32</ele>
        <time>2023-10-31T22:29:38Z</time>
      </trkpt>
      <trkpt lat="47.38806" lon="-1.57742">
        <ele>32</ele>
        <time>2023-10-31T22:30:36Z</time>
      </trkpt>
      <trkpt lat="47.38788" lon="-1.57762">
        <ele>32</ele>
        <time>2023-10-31T22:31:06Z</time>
      </trkpt>
      <trkpt lat="47.38745" lon="-1.57798">
        <ele>32</ele>
        <time>2023-10-31T22:32:12Z</time>
      </trkpt>
      <trkpt lat="47.38725" lon="-1.57809">
        <ele>31</ele>
        <time>2023-10-31T22:32:41Z</time>
      </trkpt>
      <trkpt lat="47.38704" lon="-1.57828">
        <ele>31</ele>
        <time>2023-10-31T22:33:14Z</time>
      </trkpt>
      <trkpt lat="47.38698" lon="-1.5783">
        <ele>31</ele>
        <time>2023-10-31T22:33:22Z</time>
      </trkpt>
      <trkpt lat="47.38664" lon="-1.57858">
        <ele>32</ele>
        <time>2023-10-31T22:34:14Z</time>
      </trkpt>
      <trkpt lat="47.38613" lon="-1.57888">
        <ele>33</ele>
        <time>2023-10-31T22:35:27Z</time>
      </trkpt>
      <trkpt lat="47.38551" lon="-1.57883">
        <ele>33</ele>
        <time>2023-10-31T22:36:50Z</time>
      </trkpt>
      <trkpt lat="47.3853" lon="-1.57883">
        <ele>34</ele>
        <time>2023-10-31T22:37:18Z</time>
      </trkpt>
      <trkpt lat="47.3853" lon="-1.57877">
        <ele>34</ele>
        <time>2023-10-31T22:37:23Z</time>
      </trkpt>
      <trkpt lat="47.38489" lon="-1.57874">
        <ele>34</ele>
        <time>2023-10-31T22:38:18Z</time>
      </trkpt>
      <trkpt lat="47.38477" lon="-1.57876">
        <ele>34</ele>
        <time>2023-10-31T22:38:34Z</time>
      </trkpt>
      <trkpt lat="47.38454" lon="-1.57871">
        <ele>34</ele>
        <time>2023-10-31T22:39:05Z</time>
      </trkpt>
      <trkpt lat="47.38451" lon="-1.57868">
        <ele>34</ele>
        <time>2023-10-31T22:39:10Z</time>
      </trkpt>
      <trkpt lat="47.38426" lon="-1.57864">
        <ele>34</ele>
        <time>2023-10-31T22:39:44Z</time>
      </trkpt>
      <trkpt lat="47.38418" lon="-1.57858">
        <ele>34</ele>
        <time>2023-10-31T22:39:56Z</time>
      </trkpt>
      <trkpt lat="47.38376" lon="-1.57842">
        <ele>34</ele>
        <time>2023-10-31T22:40:54Z</time>
      </trkpt>
      <trkpt lat="47.38289" lon="-1.57797">
        <ele>35</ele>
        <time>2023-10-31T22:42:57Z</time>
      </trkpt>
      <trkpt lat="47.38222" lon="-1.57784">
        <ele>36</ele>
        <time>2023-10-31T22:44:27Z</time>
      </trkpt>
      <trkpt lat="47.38198" lon="-1.5776">
        <ele>36</ele>
        <time>2023-10-31T22:45:05Z</time>
      </trkpt>
      <trkpt lat="47.38187" lon="-1.57743">
        <ele>36</ele>
        <time>2023-10-31T22:45:27Z</time>
      </trkpt>
      <trkpt lat="47.38172" lon="-1.57728">
        <ele>36</ele>
        <time>2023-10-31T22:45:51Z</time>
      </trkpt>
      <trkpt lat="47.38162" lon="-1.57722">
        <ele>36</ele>
        <time>2023-10-31T22:46:05Z</time>
      </trkpt>
      <trkpt lat="47.3815" lon="-1.57709">
        <ele>37</ele>
        <time>2023-10-31T22:46:25Z</time>
      </trkpt>
      <trkpt lat="47.38144" lon="-1.57707">
        <ele>37</ele>
        <time>2023-10-31T22:46:33Z</time>
      </trkpt>
      <trkpt lat="47.38122" lon="-1.57673">
        <ele>37</ele>
        <time>2023-10-31T22:47:16Z</time>
      </trkpt>
      <trkpt lat="47.38106" lon="-1.57656">
        <ele>37</ele>
        <time>2023-10-31T22:47:42Z</time>
      </trkpt>
      <trkpt lat="47.38087" lon="-1.57629">
        <ele>38</ele>
        <time>2023-10-31T22:48:17Z</time>
      </trkpt>
      <trkpt lat="47.38071" lon="-1.57619">
        <ele>38</ele>
        <time>2023-10-31T22:48:40Z</time>
      </trkpt>
      <trkpt lat="47.38067" lon="-1.57612">
        <ele>38</ele>
        <time>2023-10-31T22:48:49Z</time>
      </trkpt>
      <trkpt lat="47.38011" lon="-1.57559">
        <ele>39</ele>
        <time>2023-10-31T22:50:18Z</time>
      </trkpt>
      <trkpt lat="47.37929" lon="-1.57503">
        <ele>39</ele>
        <time>2023-10-31T22:52:18Z</time>
      </trkpt>
      <trkpt lat="47.37903" lon="-1.57481">
        <ele>39</ele>
        <time>2023-10-31T22:52:58Z</time>
      </trkpt>
      <trkpt lat="47.37883" lon="-1.57472">
        <ele>38</ele>
        <time>2023-10-31T22:53:26Z</time>
      </trkpt>
      <trkpt lat="47.37858" lon="-1.57449">
        <ele>37</ele>
        <time>2023-10-31T22:54:05Z</time>
      </trkpt>
      <trkpt lat="47.37845" lon="-1.57442">
        <ele>37</ele>
        <time>2023-10-31T22:54:24Z</time>
      </trkpt>
      <trkpt lat="47.37825" lon="-1.57422">
        <ele>36</ele>
        <time>2023-10-31T22:54:56Z</time>
      </trkpt>
      <trkpt lat="47.37807" lon="-1.57417">
        <ele>36</ele>
        <time>2023-10-31T22:55:20Z</time>
      </trkpt>
      <trkpt lat="47.37806" lon="-1.57413">
        <ele>36</ele>
        <time>2023-10-31T22:55:24Z</time>
      </trkpt>
      <trkpt lat="47.37761" lon="-1.57371">
        <ele>35</ele>
        <time>2023-10-31T22:56:35Z</time>
      </trkpt>
      <trkpt lat="47.37682" lon="-1.5732">
        <ele>33</ele>
        <time>2023-10-31T22:58:30Z</time>
      </trkpt>
      <trkpt lat="47.37664" lon="-1.57295">
        <ele>32</ele>
        <time>2023-10-31T22:59:03Z</time>
      </trkpt>
      <trkpt lat="47.37642" lon="-1.57282">
        <ele>32</ele>
        <time>2023-10-31T22:59:35Z</time>
      </trkpt>
      <trkpt lat="47.37604" lon="-1.57244">
        <ele>32</ele>
        <time>2023-10-31T23:00:36Z</time>
      </trkpt>
      <trkpt lat="47.37567" lon="-1.57218">
        <ele>33</ele>
        <time>2023-10-31T23:01:31Z</time>
      </trkpt>
      <trkpt lat="47.37525" lon="-1.57177">
        <ele>33</ele>
        <time>2023-10-31T23:02:38Z</time>
      </trkpt>
      <trkpt lat="47.37486" lon="-1.57151">
        <ele>32</ele>
        <time>2023-10-31T23:03:35Z</time>
      </trkpt>
      <trkpt lat="47.37472" lon="-1.57138">
        <ele>32</ele>
        <time>2023-10-31T23:03:57Z</time>
      </trkpt>
      <trkpt lat="47.37413" lon="-1.57104">
        <ele>31</ele>
        <time>2023-10-31T23:05:22Z</time>
      </trkpt>
      <trkpt lat="47.3738" lon="-1.57097">
        <ele>33</ele>
        <time>2023-10-31T23:06:06Z</time>
      </trkpt>
      <trkpt lat="47.37363" lon="-1.57089">
        <ele>34</ele>
        <time>2023-10-31T23:06:30Z</time>
      </trkpt>
      <trkpt lat="47.37362" lon="-1.57103">
        <ele>34</ele>
        <time>2023-10-31T23:06:43Z</time>
      </trkpt>
      <trkpt lat="47.37364" lon="-1.57101">
        <ele>34</ele>
        <time>2023-10-31T23:06:46Z</time>
      </trkpt>
      <trkpt lat="47.37363" lon="-1.57091">
        <ele>34</ele>
        <time>2023-10-31T23:06:55Z</time>
      </trkpt>
      <trkpt lat="47.37365" lon="-1.57074">
        <ele>34</ele>
        <time>2023-10-31T23:07:11Z</time>
      </trkpt>
      <trkpt lat="47.3737" lon="-1.57056">
        <ele>34</ele>
        <time>2023-10-31T23:07:28Z</time>
      </trkpt>
      <trkpt lat="47.37386" lon="-1.57018">
        <ele>33</ele>
        <time>2023-10-31T23:08:09Z</time>
      </trkpt>
      <trkpt lat="47.37391" lon="-1.57014">
        <ele>33</ele>
        <time>2023-10-31T23:08:16Z</time>
      </trkpt>
      <trkpt lat="47.37416" lon="-1.56966">
        <ele>33</ele>
        <time>2023-10-31T23:09:11Z</time>
      </trkpt>
      <trkpt lat="47.37472" lon="-1.56878">
        <ele>32</ele>
        <time>2023-10-31T23:11:00Z</time>
      </trkpt>
      <trkpt lat="47.37486" lon="-1.56821">
        <ele>32</ele>
        <time>2023-10-31T23:11:55Z</time>
      </trkpt>
      <trkpt lat="47.37507" lon="-1.56762">
        <ele>32</ele>
        <time>2023-10-31T23:12:55Z</time>
      </trkpt>
      <trkpt lat="47.37508" lon="-1.56719">
        <ele>32</ele>
        <time>2023-10-31T23:13:34Z</time>
      </trkpt>
      <trkpt lat="47.37514" lon="-1.56688">
        <ele>33</ele>
        <time>2023-10-31T23:14:03Z</time>
      </trkpt>
      <trkpt lat="47.37511" lon="-1.56665">
        <ele>33</ele>
        <time>2023-10-31T23:14:24Z</time>
      </trkpt>
      <trkpt lat="47.37513" lon="-1.56647">
        <ele>33</ele>
        <time>2023-10-31T23:14:41Z</time>
      </trkpt>
      <trkpt lat="47.37519" lon="-1.56612">
        <ele>33</ele>
        <time>2023-10-31T23:15:14Z</time>
      </trkpt>
      <trkpt lat="47.37517" lon="-1.56605">
        <ele>33</ele>
        <time>2023-10-31T23:15:20Z</time>
      </trkpt>
      <trkpt lat="47.37524" lon="-1.56547">
        <ele>33</ele>
        <time>2023-10-31T23:16:14Z</time>
      </trkpt>
      <trkpt lat="47.37524" lon="-1.56528">
        <ele>33</ele>
        <time>2023-10-31T23:16:31Z</time>
      </trkpt>
      <trkpt lat="47.37532" lon="-1.56507">
        <ele>33</ele>
        <time>2023-10-31T23:16:53Z</time>
      </trkpt>
      <trkpt lat="47.37532" lon="-1.56499">
        <ele>33</ele>
        <time>2023-10-31T23:17:00Z</time>
      </trkpt>
      <trkpt lat="47.37538" lon="-1.56484">
        <ele>33</ele>
        <time>2023-10-31T23:17:16Z</time>
      </trkpt>
      <trkpt lat="47.3754" lon="-1.56455">
        <ele>34</ele>
        <time>2023-10-31T23:17:42Z</time>
      </trkpt>
      <trkpt lat="47.37554" lon="-1.56399">
        <ele>34</ele>
        <time>2023-10-31T23:18:36Z</time>
      </trkpt>
      <trkpt lat="47.37565" lon="-1.56368">
        <ele>34</ele>
        <time>2023-10-31T23:19:07Z</time>
      </trkpt>
      <trkpt lat="47.3757" lon="-1.56365">
        <ele>35</ele>
        <time>2023-10-31T23:19:15Z</time>
      </trkpt>
      <trkpt lat="47.37571" lon="-1.56353">
        <ele>35</ele>
        <time>2023-10-31T23:19:26Z</time>
      </trkpt>
      <trkpt lat="47.37578" lon="-1.56339">
        <ele>35</ele>
        <time>2023-10-31T23:19:41Z</time>
      </trkpt>
      <trkpt lat="47.37578" lon="-1.56331">
        <ele>35</ele>
        <time>2023-10-31T23:19:49Z</time>
      </trkpt>
      <trkpt lat="47.37592" lon="-1.5631">
        <ele>35</ele>
        <time>2023-10-31T23:20:15Z</time>
      </trkpt>
      <trkpt lat="47.376" lon="-1.56291">
        <ele>35</ele>
        <time>2023-10-31T23:20:35Z</time>
      </trkpt>
      <trkpt lat="47.37624" lon="-1.56211">
        <ele>36</ele>
        <time>2023-10-31T23:21:54Z</time>
      </trkpt>
      <trkpt lat="47.37635" lon="-1.56165">
        <ele>36</ele>
        <time>2023-10-31T23:22:39Z</time>
      </trkpt>
      <trkpt lat="47.37637" lon="-1.56131">
        <ele>37</ele>
        <time>2023-10-31T23:23:09Z</time>
      </trkpt>
      <trkpt lat="47.37658" lon="-1.56122">
        <ele>37</ele>
        <time>2023-10-31T23:23:39Z</time>
      </trkpt>
      <trkpt lat="47.37695" lon="-1.56113">
        <ele>37</ele>
        <time>2023-10-31T23:24:29Z</time>
      </trkpt>
      <trkpt lat="47.37703" lon="-1.56091">
        <ele>37</ele>
        <time>2023-10-31T23:24:51Z</time>
      </trkpt>
      <trkpt lat="47.3773" lon="-1.56047">
        <ele>37</ele>
        <time>2023-10-31T23:25:45Z</time>
      </trkpt>
      <trkpt lat="47.37736" lon="-1.56042">
        <ele>37</ele>
        <time>2023-10-31T23:25:54Z</time>
      </trkpt>
      <trkpt lat="47.37741" lon="-1.56016">
        <ele>38</ele>
        <time>2023-10-31T23:26:18Z</time>
      </trkpt>
      <trkpt lat="47.3775" lon="-1.55993">
        <ele>38</ele>
        <time>2023-10-31T23:26:42Z</time>
      </trkpt>
      <trkpt lat="47.37759" lon="-1.55975">
        <ele>38</ele>
        <time>2023-10-31T23:27:03Z</time>
      </trkpt>
      <trkpt lat="47.37765" lon="-1.5596">
        <ele>38</ele>
        <time>2023-10-31T23:27:18Z</time>
      </trkpt>
      <trkpt lat="47.37782" lon="-1.55951">
        <ele>37</ele>
        <time>2023-10-31T23:27:43Z</time>
      </trkpt>
      <trkpt lat="47.378" lon="-1.55923">
        <ele>37</ele>
        <time>2023-10-31T23:28:17Z</time>
      </trkpt>
      <trkpt lat="47.37832" lon="-1.55842">
        <ele>37</ele>
        <time>2023-10-31T23:29:42Z</time>
      </trkpt>
      <trkpt lat="47.37853" lon="-1.55799">
        <ele>36</ele>
        <time>2023-10-31T23:30:30Z</time>
      </trkpt>
      <trkpt lat="47.37855" lon="-1.55788">
        <ele>36</ele>
        <time>2023-10-31T23:30:40Z</time>
      </trkpt>
      <trkpt lat="47.37865" lon="-1.5578">
        <ele>35</ele>
        <time>2023-10-31T23:30:56Z</time>
      </trkpt>
      <trkpt lat="47.37864" lon="-1.55775">
        <ele>35</ele>
        <time>2023-10-31T23:31:00Z</time>
      </trkpt>
      <trkpt lat="47.37842" lon="-1.55766">
        <ele>35</ele>
        <time>2023-10-31T23:31:31Z</time>
      </trkpt>
      <trkpt lat="47.37826" lon="-1.55751">
        <ele>35</ele>
        <time>2023-10-31T23:31:56Z</time>
      </trkpt>
      <trkpt lat="47.37805" lon="-1.55738">
        <ele>34</ele>
        <time>2023-10-31T23:32:26Z</time>
      </trkpt>
      <trkpt lat="47.37789" lon="-1.55724">
        <ele>34</ele>
        <time>2023-10-31T23:32:51Z</time>
      </trkpt>
      <trkpt lat="47.37792" lon="-1.55689">
        <ele>32</ele>
        <time>2023-10-31T23:33:23Z</time>
      </trkpt>
      <trkpt lat="47.37803" lon="-1.55651">
        <ele>31</ele>
        <time>2023-10-31T23:34:00Z</time>
      </trkpt>
      <trkpt lat="47.37821" lon="-1.55559">
        <ele>31</ele>
        <time>2023-10-31T23:35:27Z</time>
      </trkpt>
      <trkpt lat="47.37829" lon="-1.55533">
        <ele>31</ele>
        <time>2023-10-31T23:35:53Z</time>
      </trkpt>
      <trkpt lat="47.37831" lon="-1.55512">
        <ele>31</ele>
        <time>2023-10-31T23:36:12Z</time>
      </trkpt>
      <trkpt lat="47.37847" lon="-1.55434">
        <ele>32</ele>
        <time>2023-10-31T23:37:26Z</time>
      </trkpt>
      <trkpt lat="47.37832" lon="-1.55388">
        <ele>33</ele>
        <time>2023-10-31T23:38:12Z</time>
      </trkpt>
      <trkpt lat="47.37817" lon="-1.55355">
        <ele>33</ele>
        <time>2023-10-31T23:38:48Z</time>
      </trkpt>
      <trkpt lat="47.37793" lon="-1.55274">
        <ele>33</ele>
        <time>2023-10-31T23:40:08Z</time>
      </trkpt>
      <trkpt lat="47.37786" lon="-1.55259">
        <ele>33</ele>
        <time>2023-10-31T23:40:24Z</time>
      </trkpt>
      <trkpt lat="47.37763" lon="-1.55248">
        <ele>33</ele>
        <time>2023-10-31T23:40:56Z</time>
      </trkpt>
      <trkpt lat="47.37761" lon="-1.55233">
        <ele>33</ele>
        <time>2023-10-31T23:41:10Z</time>
      </trkpt>
      <trkpt lat="47.37763" lon="-1.55155">
        <ele>33</ele>
        <time>2023-10-31T23:42:21Z</time>
      </trkpt>
      <trkpt lat="47.37781" lon="-1.55023">
        <ele>33</ele>
        <time>2023-10-31T23:44:22Z</time>
      </trkpt>
      <trkpt lat="47.37779" lon="-1.5501">
        <ele>33</ele>
        <time>2023-10-31T23:44:34Z</time>
      </trkpt>
      <trkpt lat="47.3779" lon="-1.54859">
        <ele>32</ele>
        <time>2023-10-31T23:46:52Z</time>
      </trkpt>
      <trkpt lat="47.37784" lon="-1.5484">
        <ele>32</ele>
        <time>2023-10-31T23:47:10Z</time>
      </trkpt>
      <trkpt lat="47.37786" lon="-1.54819">
        <ele>31</ele>
        <time>2023-10-31T23:47:30Z</time>
      </trkpt>
      <trkpt lat="47.37785" lon="-1.54773">
        <ele>31</ele>
        <time>2023-10-31T23:48:11Z</time>
      </trkpt>
      <trkpt lat="47.37781" lon="-1.5476">
        <ele>30</ele>
        <time>2023-10-31T23:48:24Z</time>
      </trkpt>
      <trkpt lat="47.37782" lon="-1.54752">
        <ele>30</ele>
        <time>2023-10-31T23:48:32Z</time>
      </trkpt>
      <trkpt lat="47.37775" lon="-1.54715">
        <ele>29</ele>
        <time>2023-10-31T23:49:06Z</time>
      </trkpt>
      <trkpt lat="47.37775" lon="-1.54694">
        <ele>29</ele>
        <time>2023-10-31T23:49:25Z</time>
      </trkpt>
      <trkpt lat="47.37783" lon="-1.54663">
        <ele>28</ele>
        <time>2023-10-31T23:49:55Z</time>
      </trkpt>
      <trkpt lat="47.37784" lon="-1.54632">
        <ele>28</ele>
        <time>2023-10-31T23:50:23Z</time>
      </trkpt>
      <trkpt lat="47.37811" lon="-1.54559">
        <ele>28</ele>
        <time>2023-10-31T23:51:38Z</time>
      </trkpt>
      <trkpt lat="47.37812" lon="-1.54535">
        <ele>27</ele>
        <time>2023-10-31T23:52:00Z</time>
      </trkpt>
      <trkpt lat="47.37816" lon="-1.54517">
        <ele>27</ele>
        <time>2023-10-31T23:52:17Z</time>
      </trkpt>
      <trkpt lat="47.37828" lon="-1.54483">
        <ele>27</ele>
        <time>2023-10-31T23:52:52Z</time>
      </trkpt>
      <trkpt lat="47.37852" lon="-1.54382">
        <ele>27</ele>
        <time>2023-10-31T23:54:29Z</time>
      </trkpt>
      <trkpt lat="47.37861" lon="-1.54363">
        <ele>28</ele>
        <time>2023-10-31T23:54:50Z</time>
      </trkpt>
      <trkpt lat="47.37863" lon="-1.54341">
        <ele>28</ele>
        <time>2023-10-31T23:55:10Z</time>
      </trkpt>
      <trkpt lat="47.37878" lon="-1.54312">
        <ele>29</ele>
        <time>2023-10-31T23:55:43Z</time>
      </trkpt>
      <trkpt lat="47.37887" lon="-1.54283">
        <ele>30</ele>
        <time>2023-10-31T23:56:11Z</time>
      </trkpt>
      <trkpt lat="47.37891" lon="-1.54243">
        <ele>30</ele>
        <time>2023-10-31T23:56:48Z</time>
      </trkpt>
      <trkpt lat="47.37891" lon="-1.54213">
        <ele>29</ele>
        <time>2023-10-31T23:57:15Z</time>
      </trkpt>
      <trkpt lat="47.37896" lon="-1.54171">
        <ele>29</ele>
        <time>2023-10-31T23:57:54Z</time>
      </trkpt>
      <trkpt lat="47.37902" lon="-1.54119">
        <ele>28</ele>
        <time>2023-10-31T23:58:41Z</time>
      </trkpt>
      <trkpt lat="47.37908" lon="-1.54092">
        <ele>28</ele>
        <time>2023-10-31T23:59:07Z</time>
      </trkpt>
      <trkpt lat="47.37923" lon="-1.5397">
        <ele>29</ele>
        <time>2023-11-01T00:00:59Z</time>
      </trkpt>
      <trkpt lat="47.37926" lon="-1.5393">
        <ele>29</ele>
        <time>2023-11-01T00:01:35Z</time>
      </trkpt>
      <trkpt lat="47.37938" lon="-1.53919">
        <ele>29</ele>
        <time>2023-11-01T00:01:54Z</time>
      </trkpt>
      <trkpt lat="47.3795" lon="-1.5392">
        <ele>29</ele>
        <time>2023-11-01T00:02:10Z</time>
      </trkpt>
      <trkpt lat="47.37956" lon="-1.53923">
        <ele>29</ele>
        <time>2023-11-01T00:02:19Z</time>
      </trkpt>
      <trkpt lat="47.37983" lon="-1.53925">
        <ele>28</ele>
        <time>2023-11-01T00:02:55Z</time>
      </trkpt>
      <trkpt lat="47.38025" lon="-1.53912">
        <ele>29</ele>
        <time>2023-11-01T00:03:52Z</time>
      </trkpt>
      <trkpt lat="47.38067" lon="-1.53896">
        <ele>30</ele>
        <time>2023-11-01T00:04:50Z</time>
      </trkpt>
      <trkpt lat="47.38108" lon="-1.53886">
        <ele>30</ele>
        <time>2023-11-01T00:05:45Z</time>
      </trkpt>
      <trkpt lat="47.38196" lon="-1.53835">
        <ele>30</ele>
        <time>2023-11-01T00:07:52Z</time>
      </trkpt>
      <trkpt lat="47.38217" lon="-1.53818">
        <ele>29</ele>
        <time>2023-11-01T00:08:23Z</time>
      </trkpt>
      <trkpt lat="47.38252" lon="-1.53784">
        <ele>28</ele>
        <time>2023-11-01T00:09:19Z</time>
      </trkpt>
      <trkpt lat="47.38337" lon="-1.53732">
        <ele>27</ele>
        <time>2023-11-01T00:11:22Z</time>
      </trkpt>
      <trkpt lat="47.38374" lon="-1.53703">
        <ele>25</ele>
        <time>2023-11-01T00:12:18Z</time>
      </trkpt>
      <trkpt lat="47.38433" lon="-1.53693">
        <ele>24</ele>
        <time>2023-11-01T00:13:37Z</time>
      </trkpt>
      <trkpt lat="47.38492" lon="-1.53674">
        <ele>24</ele>
        <time>2023-11-01T00:14:58Z</time>
      </trkpt>
      <trkpt lat="47.38543" lon="-1.53662">
        <ele>24</ele>
        <time>2023-11-01T00:16:07Z</time>
      </trkpt>
      <trkpt lat="47.38587" lon="-1.53658">
        <ele>25</ele>
        <time>2023-11-01T00:17:06Z</time>
      </trkpt>
      <trkpt lat="47.38601" lon="-1.53651">
        <ele>25</ele>
        <time>2023-11-01T00:17:25Z</time>
      </trkpt>
      <trkpt lat="47.38623" lon="-1.53657">
        <ele>26</ele>
        <time>2023-11-01T00:17:55Z</time>
      </trkpt>
      <trkpt lat="47.38649" lon="-1.53658">
        <ele>26</ele>
        <time>2023-11-01T00:18:30Z</time>
      </trkpt>
      <trkpt lat="47.38677" lon="-1.53657">
        <ele>27</ele>
        <time>2023-11-01T00:19:07Z</time>
      </trkpt>
      <trkpt lat="47.38731" lon="-1.53644">
        <ele>27</ele>
        <time>2023-11-01T00:20:20Z</time>
      </trkpt>
      <trkpt lat="47.38757" lon="-1.53632">
        <ele>26</ele>
        <time>2023-11-01T00:20:57Z</time>
      </trkpt>
      <trkpt lat="47.38801" lon="-1.53627">
        <ele>24</ele>
        <time>2023-11-01T00:21:56Z</time>
      </trkpt>
      <trkpt lat="47.38837" lon="-1.53627">
        <ele>23</ele>
        <time>2023-11-01T00:22:44Z</time>
      </trkpt>
      <trkpt lat="47.3886" lon="-1.5363">
        <ele>22</ele>
        <time>2023-11-01T00:23:14Z</time>
      </trkpt>
      <trkpt lat="47.38913" lon="-1.53616">
        <ele>21</ele>
        <time>2023-11-01T00:24:26Z</time>
      </trkpt>
      <trkpt lat="47.38949" lon="-1.53611">
        <ele>20</ele>
        <time>2023-11-01T00:25:15Z</time>
      </trkpt>
      <trkpt lat="47.38981" lon="-1.53602">
        <ele>19</ele>
        <time>2023-11-01T00:25:58Z</time>
      </trkpt>
      <trkpt lat="47.38985" lon="-1.53604">
        <ele>18</ele>
        <time>2023-11-01T00:26:04Z</time>
      </trkpt>
      <trkpt lat="47.39008" lon="-1.53592">
        <ele>18</ele>
        <time>2023-11-01T00:26:36Z</time>
      </trkpt>
      <trkpt lat="47.39024" lon="-1.53592">
        <ele>18</ele>
        <time>2023-11-01T00:26:58Z</time>
      </trkpt>
      <trkpt lat="47.39134" lon="-1.53566">
        <ele>19</ele>
        <time>2023-11-01T00:29:26Z</time>
      </trkpt>
      <trkpt lat="47.39183" lon="-1.53553">
        <ele>19</ele>
        <time>2023-11-01T00:30:33Z</time>
      </trkpt>
      <trkpt lat="47.39256" lon="-1.5352">
        <ele>19</ele>
        <time>2023-11-01T00:32:14Z</time>
      </trkpt>
      <trkpt lat="47.393" lon="-1.53502">
        <ele>18</ele>
        <time>2023-11-01T00:33:15Z</time>
      </trkpt>
      <trkpt lat="47.39337" lon="-1.53497">
        <ele>16</ele>
        <time>2023-11-01T00:34:05Z</time>
      </trkpt>
      <trkpt lat="47.39354" lon="-1.53496">
        <ele>15</ele>
        <time>2023-11-01T00:34:28Z</time>
      </trkpt>
      <trkpt lat="47.39421" lon="-1.53514">
        <ele>12</ele>
        <time>2023-11-01T00:35:59Z</time>
      </trkpt>
      <trkpt lat="47.39443" lon="-1.53513">
        <ele>12</ele>
        <time>2023-11-01T00:36:28Z</time>
      </trkpt>
      <trkpt lat="47.39452" lon="-1.53515">
        <ele>12</ele>
        <time>2023-11-01T00:36:40Z</time>
      </trkpt>
      <trkpt lat="47.39455" lon="-1.5352">
        <ele>12</ele>
        <time>2023-11-01T00:36:46Z</time>
      </trkpt>
      <trkpt lat="47.39469" lon="-1.53529">
        <ele>11</ele>
        <time>2023-11-01T00:37:06Z</time>
      </trkpt>
      <trkpt lat="47.39528" lon="-1.53585">
        <ele>13</ele>
        <time>2023-11-01T00:38:40Z</time>
      </trkpt>
      <trkpt lat="47.39554" lon="-1.53597">
        <ele>14</ele>
        <time>2023-11-01T00:39:16Z</time>
      </trkpt>
      <trkpt lat="47.39574" lon="-1.53603">
        <ele>15</ele>
        <time>2023-11-01T00:39:44Z</time>
      </trkpt>
      <trkpt lat="47.39588" lon="-1.53603">
        <ele>16</ele>
        <time>2023-11-01T00:40:02Z</time>
      </trkpt>
      <trkpt lat="47.39607" lon="-1.53611">
        <ele>16</ele>
        <time>2023-11-01T00:40:29Z</time>
      </trkpt>
      <trkpt lat="47.39621" lon="-1.53613">
        <ele>17</ele>
        <time>2023-11-01T00:40:47Z</time>
      </trkpt>
      <trkpt lat="47.39632" lon="-1.53625">
        <ele>17</ele>
        <time>2023-11-01T00:41:06Z</time>
      </trkpt>
      <trkpt lat="47.39656" lon="-1.53637">
        <ele>19</ele>
        <time>2023-11-01T00:41:40Z</time>
      </trkpt>
      <trkpt lat="47.39698" lon="-1.53677">
        <ele>20</ele>
        <time>2023-11-01T00:42:46Z</time>
      </trkpt>
      <trkpt lat="47.39703" lon="-1.53685">
        <ele>21</ele>
        <time>2023-11-01T00:42:56Z</time>
      </trkpt>
      <trkpt lat="47.39713" lon="-1.53696">
        <ele>21</ele>
        <time>2023-11-01T00:43:13Z</time>
      </trkpt>
      <trkpt lat="47.39724" lon="-1.53713">
        <ele>21</ele>
        <time>2023-11-01T00:43:34Z</time>
      </trkpt>
      <trkpt lat="47.39723" lon="-1.53722">
        <ele>22</ele>
        <time>2023-11-01T00:43:42Z</time>
      </trkpt>
      <trkpt lat="47.39718" lon="-1.53734">
        <ele>22</ele>
        <time>2023-11-01T00:43:55Z</time>
      </trkpt>
      <trkpt lat="47.39739" lon="-1.53704">
        <ele>22</ele>
        <time>2023-11-01T00:44:34Z</time>
      </trkpt>
      <trkpt lat="47.3976" lon="-1.53701">
        <ele>22</ele>
        <time>2023-11-01T00:45:02Z</time>
      </trkpt>
      <trkpt lat="47.39775" lon="-1.537">
        <ele>21</ele>
        <time>2023-11-01T00:45:22Z</time>
      </trkpt>
      <trkpt lat="47.398" lon="-1.53704">
        <ele>21</ele>
        <time>2023-11-01T00:45:56Z</time>
      </trkpt>
      <trkpt lat="47.39804" lon="-1.53702">
        <ele>21</ele>
        <time>2023-11-01T00:46:01Z</time>
      </trkpt>
      <trkpt lat="47.39844" lon="-1.53706">
        <ele>20</ele>
        <time>2023-11-01T00:46:55Z</time>
      </trkpt>
      <trkpt lat="47.39849" lon="-1.53709">
        <ele>20</ele>
        <time>2023-11-01T00:47:02Z</time>
      </trkpt>
      <trkpt lat="47.39885" lon="-1.53713">
        <ele>19</ele>
        <time>2023-11-01T00:47:50Z</time>
      </trkpt>
      <trkpt lat="47.39903" lon="-1.53712">
        <ele>18</ele>
        <time>2023-11-01T00:48:14Z</time>
      </trkpt>
      <trkpt lat="47.39938" lon="-1.53716">
        <ele>18</ele>
        <time>2023-11-01T00:49:01Z</time>
      </trkpt>
      <trkpt lat="47.39956" lon="-1.53723">
        <ele>18</ele>
        <time>2023-11-01T00:49:26Z</time>
      </trkpt>
      <trkpt lat="47.39971" lon="-1.53724">
        <ele>18</ele>
        <time>2023-11-01T00:49:46Z</time>
      </trkpt>
      <trkpt lat="47.39978" lon="-1.53704">
        <ele>18</ele>
        <time>2023-11-01T00:50:06Z</time>
      </trkpt>
      <trkpt lat="47.39977" lon="-1.53699">
        <ele>18</ele>
        <time>2023-11-01T00:50:11Z</time>
      </trkpt>
      <trkpt lat="47.3998" lon="-1.53688">
        <ele>17</ele>
        <time>2023-11-01T00:50:22Z</time>
      </trkpt>
      <trkpt lat="47.39979" lon="-1.5368">
        <ele>17</ele>
        <time>2023-11-01T00:50:29Z</time>
      </trkpt>
      <trkpt lat="47.40025" lon="-1.53686">
        <ele>17</ele>
        <time>2023-11-01T00:51:31Z</time>
      </trkpt>
      <trkpt lat="47.40055" lon="-1.53695">
        <ele>17</ele>
        <time>2023-11-01T00:52:11Z</time>
      </trkpt>
      <trkpt lat="47.40104" lon="-1.53696">
        <ele>15</ele>
        <time>2023-11-01T00:53:17Z</time>
      </trkpt>
      <trkpt lat="47.40121" lon="-1.53667">
        <ele>13</ele>
        <time>2023-11-01T00:53:52Z</time>
      </trkpt>
      <trkpt lat="47.40148" lon="-1.53662">
        <ele>12</ele>
        <time>2023-11-01T00:54:28Z</time>
      </trkpt>
      <trkpt lat="47.40176" lon="-1.53664">
        <ele>11</ele>
        <time>2023-11-01T00:55:05Z</time>
      </trkpt>
      <trkpt lat="47.40203" lon="-1.53664">
        <ele>10</ele>
        <time>2023-11-01T00:55:41Z</time>
      </trkpt>
      <trkpt lat="47.40202" lon="-1.53668">
        <ele>10</ele>
        <time>2023-11-01T00:55:45Z</time>
      </trkpt>
    </trkseg>
  </trk>
</gpx>